Time;durP1;ratioP1;P1;durP2;ratioP2;P2;SDS_P1;SDS_P2;PMS_P1;PMS_P2;Temp;Humidity;BMP_temperature;BMP_pressure;BME280_temperature;BME280_humidity;BME280_pressure;Samples;Min_cycle;Max_cycle;Signal;HPM_P1;HPM_P2
2022/09/07 00:01:14;;;;;;;5.90;2.63;;;;;;;;;;4994640;28;93716;-67
2022/09/07 00:03:40;;;;;;;5.32;2.33;;;;;;;;;;4995873;28;92364;-67
2022/09/07 00:06:08;;;;;;;4.50;2.42;;;;;;;;;;4995526;28;93625;-67
2022/09/07 00:08:34;;;;;;;11.10;2.65;;;;;;;;;;4995519;28;93491;-67
2022/09/07 00:11:02;;;;;;;6.28;2.65;;;;;;;;;;4995568;28;92408;-67
2022/09/07 00:13:30;;;;;;;6.45;2.95;;;;;;;;;;4993146;28;94857;-67
2022/09/07 00:15:57;;;;;;;7.72;3.13;;;;;;;;;;4995599;28;93415;-67
2022/09/07 00:18:23;;;;;;;6.03;2.50;;;;;;;;;;4994697;28;92381;-68
2022/09/07 00:20:57;;;;;;;6.28;2.78;;;;;;;;;;4998274;28;93019;-66
2022/09/07 00:23:23;;;;;;;3.70;2.42;;;;;;;;;;4994234;28;92475;-67
2022/09/07 00:25:49;;;;;;;7.82;3.05;;;;;;;;;;4995686;28;93165;-67
2022/09/07 00:28:19;;;;;;;5.83;2.63;;;;;;;;;;5010094;28;93410;-67
2022/09/07 00:30:45;;;;;;;10.73;3.53;;;;;;;;;;4996401;28;91653;-67
2022/09/07 00:33:11;;;;;;;6.40;2.83;;;;;;;;;;4994172;28;92612;-66
2022/09/07 00:35:38;;;;;;;7.90;3.50;;;;;;;;;;4995098;28;94548;-67
2022/09/07 00:38:05;;;;;;;3.85;3.00;;;;;;;;;;4993830;28;95258;-67
2022/09/07 00:40:31;;;;;;;5.45;3.10;;;;;;;;;;4998115;28;95525;-66
2022/09/07 00:42:57;;;;;;;6.47;2.90;;;;;;;;;;4993764;28;92342;-66
2022/09/07 00:45:24;;;;;;;5.38;2.90;;;;;;;;;;4995611;28;94600;-66
2022/09/07 00:48:01;;;;;;;9.45;3.30;;;;;;;;;;4995012;28;93415;-67
2022/09/07 00:50:32;;;;;;;7.00;3.10;;;;;;;;;;4995110;28;92389;-67
2022/09/07 00:53:02;;;;;;;6.30;2.55;;;;;;;;;;5010666;28;93630;-66
2022/09/07 00:55:29;;;;;;;;;;;;;;;;;;4995512;28;92341;-66
2022/09/07 00:57:56;;;;;;;5.70;2.40;;;;;;;;;;4994588;28;118007;-66
2022/09/07 01:00:22;;;;;;;6.22;2.83;;;;;;;;;;4995005;28;93874;-66
2022/09/07 01:02:49;;;;;;;6.75;2.63;;;;;;;;;;4996168;28;95714;-66
2022/09/07 01:05:20;;;;;;;5.28;2.50;;;;;;;;;;4993036;28;95697;-67
2022/09/07 01:07:46;;;;;;;4.03;2.50;;;;;;;;;;4994897;28;93228;-66
2022/09/07 01:10:13;;;;;;;7.45;2.88;;;;;;;;;;4994554;28;92440;-66
2022/09/07 01:12:39;;;;;;;6.82;2.67;;;;;;;;;;4995091;28;93248;-66
2022/09/07 01:15:06;;;;;;;6.45;2.42;;;;;;;;;;4993062;28;93818;-66
2022/09/07 01:17:40;;;;;;;5.80;2.10;;;;;;;;;;4994735;28;92453;-66
2022/09/07 01:20:25;;;;;;;5.25;2.58;;;;;;;;;;4995621;28;93165;-67
2022/09/07 01:22:51;;;;;;;7.28;2.50;;;;;;;;;;4994899;28;93474;-66
2022/09/07 01:25:17;;;;;;;9.73;2.42;;;;;;;;;;4997760;28;92402;-66
2022/09/07 01:28:04;;;;;;;13.23;2.80;;;;;;;;;;4992822;28;95472;-66
2022/09/07 01:30:34;;;;;;;5.80;2.30;;;;;;;;;;4993252;28;92490;-67
2022/09/07 01:33:00;;;;;;;4.10;1.77;;;;;;;;;;4994751;28;93305;-67
2022/09/07 01:35:45;;;;;;;5.10;2.10;;;;;;;;;;4993089;28;93234;-66
2022/09/07 01:38:26;;;;;;;3.95;2.33;;;;;;;;;;4994533;28;92508;-67
2022/09/07 01:41:08;;;;;;;3.25;2.50;;;;;;;;;;4994412;28;93154;-66
2022/09/07 01:43:46;;;;;;;3.10;1.95;;;;;;;;;;4994733;28;93275;-66
2022/09/07 01:46:16;;;;;;;8.60;2.58;;;;;;;;;;4998213;28;91652;-66
2022/09/07 01:48:45;;;;;;;5.10;2.20;;;;;;;;;;5000779;28;92356;-66
2022/09/07 01:51:11;;;;;;;3.95;2.15;;;;;;;;;;4997913;28;92421;-67
2022/09/07 01:53:45;;;;;;;3.42;2.08;;;;;;;;;;4995695;28;94760;-67
2022/09/07 01:56:13;;;;;;;3.05;2.08;;;;;;;;;;4997509;28;93446;-66
2022/09/07 01:58:39;;;;;;;4.78;2.10;;;;;;;;;;4996584;28;92775;-67
2022/09/07 02:01:08;;;;;;;5.43;2.20;;;;;;;;;;4998013;28;93526;-66
2022/09/07 02:03:38;;;;;;;3.35;2.30;;;;;;;;;;4997625;28;93475;-67
2022/09/07 02:06:04;;;;;;;;;;;;;;;;;;4997960;28;92411;-67
2022/09/07 02:08:32;;;;;;;4.40;2.53;;;;;;;;;;4997417;28;124112;-66
2022/09/07 02:11:03;;;;;;;6.15;2.58;;;;;;;;;;5000859;28;92488;-66
2022/09/07 02:13:29;;;;;;;6.10;2.78;;;;;;;;;;4997728;28;92478;-66
2022/09/07 02:16:00;;;;;;;4.18;2.67;;;;;;;;;;4996409;28;93751;-67
2022/09/07 02:18:30;;;;;;;4.00;2.53;;;;;;;;;;4995777;28;94946;-67
2022/09/07 02:20:58;;;;;;;4.28;2.08;;;;;;;;;;4995907;28;96087;-67
2022/09/07 02:23:27;;;;;;;5.20;2.40;;;;;;;;;;4997327;28;93479;-66
2022/09/07 02:26:01;;;;;;;3.55;2.50;;;;;;;;;;4997066;28;92382;-67
2022/09/07 02:28:35;;;;;;;4.03;2.20;;;;;;;;;;4997480;28;94082;-67
2022/09/07 02:31:01;;;;;;;3.97;2.30;;;;;;;;;;4997490;28;93277;-67
2022/09/07 02:33:28;;;;;;;3.10;2.33;;;;;;;;;;5000392;28;92466;-67
2022/09/07 02:35:55;;;;;;;9.63;2.78;;;;;;;;;;4997760;28;93760;-66
2022/09/07 02:38:22;;;;;;;4.60;2.28;;;;;;;;;;4995678;28;92475;-67
2022/09/07 02:40:49;;;;;;;3.90;2.38;;;;;;;;;;4997410;28;93411;-67
2022/09/07 02:43:16;;;;;;;3.38;2.30;;;;;;;;;;4995341;28;96487;-66
2022/09/07 02:46:01;;;;;;;3.47;2.35;;;;;;;;;;4996213;28;92562;-67
2022/09/07 02:48:39;;;;;;;4.93;2.33;;;;;;;;;;4995725;28;93187;-67
2022/09/07 02:51:21;;;;;;;4.90;1.92;;;;;;;;;;4995542;28;93471;-67
2022/09/07 02:53:48;;;;;;;3.53;2.15;;;;;;;;;;4998117;28;92429;-67
2022/09/07 02:56:35;;;;;;;7.05;2.60;;;;;;;;;;4995848;28;93455;-67
2022/09/07 02:59:01;;;;;;;3.72;1.80;;;;;;;;;;4997249;28;92312;-66
2022/09/07 03:01:35;;;;;;;4.38;2.10;;;;;;;;;;4997393;28;94161;-67
2022/09/07 03:04:14;;;;;;;5.22;2.25;;;;;;;;;;4996593;28;93666;-67
2022/09/07 03:06:43;;;;;;;6.93;1.90;;;;;;;;;;4996413;28;92453;-67
2022/09/07 03:09:12;;;;;;;2.85;1.85;;;;;;;;;;4995473;28;94736;-66
2022/09/07 03:11:38;;;;;;;4.45;1.98;;;;;;;;;;4996107;28;93219;-67
2022/09/07 03:14:11;;;;;;;4.45;1.92;;;;;;;;;;4996732;28;92368;-66
2022/09/07 03:16:37;;;;;;;3.28;2.25;;;;;;;;;;4999404;28;93238;-67
2022/09/07 03:19:04;;;;;;;5.97;2.33;;;;;;;;;;4996566;28;92429;-66
2022/09/07 03:21:30;;;;;;;4.00;2.22;;;;;;;;;;4996398;28;93013;-67
2022/09/07 03:23:57;;;;;;;6.32;2.30;;;;;;;;;;4996614;28;92364;-66
2022/09/07 03:26:24;;;;;;;9.05;2.88;;;;;;;;;;4996612;28;91678;-67
2022/09/07 03:28:50;;;;;;;5.15;2.05;;;;;;;;;;4996514;28;92727;-66
2022/09/07 03:31:16;;;;;;;5.03;2.22;;;;;;;;;;4995951;28;93592;-66
2022/09/07 03:33:43;;;;;;;3.50;2.00;;;;;;;;;;4994741;28;95098;-67
2022/09/07 03:36:09;;;;;;;3.05;1.92;;;;;;;;;;4996211;28;95764;-66
2022/09/07 03:38:35;;;;;;;4.68;2.22;;;;;;;;;;4999100;28;93695;-67
2022/09/07 03:41:03;;;;;;;5.72;2.08;;;;;;;;;;4996009;28;93167;-66
2022/09/07 03:43:30;;;;;;;3.20;2.20;;;;;;;;;;4995688;28;93236;-66
2022/09/07 03:46:00;;;;;;;6.55;2.45;;;;;;;;;;4996428;28;92495;-67
2022/09/07 03:48:30;;;;;;;5.22;2.20;;;;;;;;;;4995956;28;93127;-66
2022/09/07 03:50:57;;;;;;;2.13;1.88;;;;;;;;;;4996595;28;93617;-67
2022/09/07 03:53:24;;;;;;;5.85;2.15;;;;;;;;;;4994141;28;92784;-66
2022/09/07 03:55:57;;;;;;;5.30;1.90;;;;;;;;;;4995671;28;92956;-67
2022/09/07 03:58:24;;;;;;;6.47;2.00;;;;;;;;;;4994162;28;97196;-66
2022/09/07 04:00:50;;;;;;;2.90;2.13;;;;;;;;;;4997727;28;92474;-66
2022/09/07 04:03:16;;;;;;;6.43;2.42;;;;;;;;;;4995501;28;93341;-66
2022/09/07 04:05:43;;;;;;;5.57;1.88;;;;;;;;;;4995041;28;92861;-67
2022/09/07 04:08:09;;;;;;;13.93;2.35;;;;;;;;;;4994273;28;93265;-66
2022/09/07 04:10:36;;;;;;;8.27;2.30;;;;;;;;;;4994210;28;93288;-66
2022/09/07 04:13:03;;;;;;;4.78;1.70;;;;;;;;;;4995503;28;92387;-66
2022/09/07 04:15:29;;;;;;;3.30;1.80;;;;;;;;;;4996348;28;93575;-66
2022/09/07 04:17:55;;;;;;;6.63;1.77;;;;;;;;;;4994179;28;93080;-66
2022/09/07 04:20:21;;;;;;;7.95;2.17;;;;;;;;;;4995390;28;92451;-66
2022/09/07 04:22:48;;;;;;;3.65;1.88;;;;;;;;;;4997035;28;95237;-66
2022/09/07 04:25:19;;;;;;;4.55;1.77;;;;;;;;;;4995275;28;92444;-66
2022/09/07 04:27:45;;;;;;;2.75;1.80;;;;;;;;;;4995525;28;94028;-67
2022/09/07 04:30:12;;;;;;;2.38;1.75;;;;;;;;;;4995132;28;93471;-66
2022/09/07 04:32:38;;;;;;;4.93;2.28;;;;;;;;;;4995307;28;92403;-66
2022/09/07 04:35:05;;;;;;;3.72;2.75;;;;;;;;;;4995295;28;93223;-66
2022/09/07 04:37:31;;;;;;;4.55;2.05;;;;;;;;;;4994863;28;93691;-67
2022/09/07 04:39:57;;;;;;;6.25;2.67;;;;;;;;;;4995594;28;91677;-66
2022/09/07 04:42:24;;;;;;;4.88;2.70;;;;;;;;;;4995041;28;93586;-66
2022/09/07 04:44:50;;;;;;;3.30;2.40;;;;;;;;;;4998240;28;93652;-66
2022/09/07 04:47:16;;;;;;;3.45;2.20;;;;;;;;;;5008858;28;94911;-66
2022/09/07 04:49:42;;;;;;;8.65;3.03;;;;;;;;;;4994803;28;93062;-66
2022/09/07 04:52:09;;;;;;;7.72;2.83;;;;;;;;;;4993494;28;92921;-67
2022/09/07 04:54:35;;;;;;;14.70;3.25;;;;;;;;;;4994810;28;93277;-66
2022/09/07 04:57:01;;;;;;;11.68;2.90;;;;;;;;;;4994570;28;93825;-67
2022/09/07 04:59:28;;;;;;;7.30;3.00;;;;;;;;;;4994626;28;92393;-66
2022/09/07 05:01:54;;;;;;;8.02;3.42;;;;;;;;;;4993393;28;93146;-67
2022/09/07 05:04:20;;;;;;;6.82;3.08;;;;;;;;;;4998358;28;93308;-67
2022/09/07 05:06:46;;;;;;;6.93;3.38;;;;;;;;;;4994409;28;92405;-67
2022/09/07 05:09:13;;;;;;;4.43;3.25;;;;;;;;;;4993745;28;93964;-67
2022/09/07 05:11:39;;;;;;;4.70;3.17;;;;;;;;;;4993043;28;94770;-67
2022/09/07 05:14:06;;;;;;;10.65;3.25;;;;;;;;;;4995003;28;96367;-66
2022/09/07 05:16:33;;;;;;;3.17;2.78;;;;;;;;;;4994338;28;93839;-67
2022/09/07 05:19:00;;;;;;;10.93;3.55;;;;;;;;;;4993974;28;92421;-67
2022/09/07 05:21:28;;;;;;;6.45;3.63;;;;;;;;;;4994397;28;92967;-66
2022/09/07 05:23:55;;;;;;;5.00;3.65;;;;;;;;;;4994549;28;93781;-67
2022/09/07 05:26:22;;;;;;;3.63;3.30;;;;;;;;;;4997408;28;92476;-66
2022/09/07 05:28:49;;;;;;;5.90;3.40;;;;;;;;;;4994631;28;92784;-66
2022/09/07 05:31:16;;;;;;;5.55;3.72;;;;;;;;;;5009884;28;92553;-66
2022/09/07 05:33:45;;;;;;;4.97;3.15;;;;;;;;;;4994339;28;93139;-66
2022/09/07 05:36:32;;;;;;;7.43;3.60;;;;;;;;;;4992564;28;95755;-66
2022/09/07 05:38:58;;;;;;;7.05;3.15;;;;;;;;;;4992936;28;92504;-66
2022/09/07 05:41:25;;;;;;;5.20;3.60;;;;;;;;;;4994344;28;92943;-67
2022/09/07 05:43:52;;;;;;;3.83;3.28;;;;;;;;;;4993602;28;93455;-66
2022/09/07 05:46:39;;;;;;;7.65;3.92;;;;;;;;;;4994511;28;92374;-66
2022/09/07 05:49:06;;;;;;;9.25;3.67;;;;;;;;;;4997149;28;93593;-67
2022/09/07 05:51:33;;;;;;;9.93;4.20;;;;;;;;;;4992870;28;92498;-66
2022/09/07 05:53:59;;;;;;;3.72;3.42;;;;;;;;;;4994272;28;92881;-67
2022/09/07 05:56:25;;;;;;;7.13;3.30;;;;;;;;;;4993978;28;93276;-66
2022/09/07 05:58:52;;;;;;;6.38;3.95;;;;;;;;;;4994102;28;92359;-67
2022/09/07 06:01:18;;;;;;;7.15;3.95;;;;;;;;;;4991303;28;95170;-66
2022/09/07 06:03:44;;;;;;;4.60;3.65;;;;;;;;;;4993856;28;93619;-66
2022/09/07 06:06:15;;;;;;;5.95;3.67;;;;;;;;;;4994269;28;92396;-67
2022/09/07 06:08:45;;;;;;;6.45;4.28;;;;;;;;;;4993788;28;93027;-66
2022/09/07 06:11:12;;;;;;;;;;;;;;;;;;5012427;28;93469;-67
2022/09/07 06:13:38;;;;;;;7.35;3.97;;;;;;;;;;4993469;28;123647;-66
2022/09/07 06:16:05;;;;;;;5.45;4.00;;;;;;;;;;4994016;28;93943;-67
2022/09/07 06:18:36;;;;;;;7.72;4.70;;;;;;;;;;4994294;28;91658;-66
2022/09/07 06:21:06;;;;;;;13.43;4.65;;;;;;;;;;4993949;28;92729;-67
2022/09/07 06:23:33;;;;;;;6.32;4.20;;;;;;;;;;4992052;28;93464;-66
2022/09/07 06:25:59;;;;;;;8.02;4.40;;;;;;;;;;4992158;28;94811;-66
2022/09/07 06:28:36;;;;;;;8.13;4.20;;;;;;;;;;4992851;28;95670;-66
2022/09/07 06:31:07;;;;;;;8.98;4.47;;;;;;;;;;4993343;28;93210;-67
2022/09/07 06:33:34;;;;;;;9.23;5.25;;;;;;;;;;5000088;28;92865;-66
2022/09/07 06:36:02;;;;;;;5.47;4.53;;;;;;;;;;4997006;28;93379;-67
2022/09/07 06:38:29;;;;;;;5.38;4.78;;;;;;;;;;4996990;28;92420;-66
2022/09/07 06:41:03;;;;;;;7.95;5.43;;;;;;;;;;4997075;28;93102;-66
2022/09/07 06:43:50;;;;;;;9.45;5.15;;;;;;;;;;4997050;28;92530;-67
2022/09/07 06:46:16;;;;;;;6.70;6.00;;;;;;;;;;4997168;28;92542;-67
2022/09/07 06:49:02;;;;;;;7.30;6.22;;;;;;;;;;4996651;28;92912;-66
2022/09/07 06:51:29;;;;;;;10.60;7.10;;;;;;;;;;4995306;28;98587;-66
2022/09/07 06:53:55;;;;;;;9.55;6.95;;;;;;;;;;4996395;28;92669;-66
2022/09/07 06:56:42;;;;;;;11.07;6.90;;;;;;;;;;4999560;28;92763;-66
2022/09/07 06:59:09;;;;;;;12.38;7.50;;;;;;;;;;4996540;28;92817;-66
2022/09/07 07:01:35;;;;;;;13.93;7.47;;;;;;;;;;4996837;28;93366;-66
2022/09/07 07:04:02;;;;;;;10.57;7.18;;;;;;;;;;4996291;28;93412;-66
2022/09/07 07:06:35;;;;;;;11.80;7.93;;;;;;;;;;4995033;28;92521;-66
2022/09/07 07:09:02;;;;;;;7.80;7.00;;;;;;;;;;4996667;28;93467;-66
2022/09/07 07:11:29;;;;;;;8.98;7.00;;;;;;;;;;4995051;28;93491;-66
2022/09/07 07:13:56;;;;;;;11.90;7.05;;;;;;;;;;4996274;28;92466;-66
2022/09/07 07:16:22;;;;;;;10.02;7.35;;;;;;;;;;4997804;28;94778;-66
2022/09/07 07:18:53;;;;;;;9.13;7.60;;;;;;;;;;4996260;28;92492;-66
2022/09/07 07:21:19;;;;;;;9.00;7.22;;;;;;;;;;4996360;28;92361;-67
2022/09/07 07:23:50;;;;;;;10.40;7.90;;;;;;;;;;4994676;28;93391;-67
2022/09/07 07:26:17;;;;;;;13.20;8.40;;;;;;;;;;4996167;28;92470;-66
2022/09/07 07:28:48;;;;;;;14.45;8.90;;;;;;;;;;4996210;28;93144;-67
2022/09/07 07:31:31;;;;;;;10.23;8.02;;;;;;;;;;4996772;28;92411;-67
2022/09/07 07:37:04;;;;;;;11.60;8.13;;;;;;;;;;5012978;28;93478;-66
2022/09/07 07:39:30;;;;;;;9.07;7.82;;;;;;;;;;5016636;28;93487;-67
2022/09/07 07:42:16;;;;;;;13.82;8.93;;;;;;;;;;5011465;28;94978;-66
2022/09/07 07:44:42;;;;;;;14.00;8.90;;;;;;;;;;5013256;28;92692;-67
2022/09/07 07:47:09;;;;;;;19.73;9.10;;;;;;;;;;5013800;28;92497;-67
2022/09/07 07:49:35;;;;;;;12.70;9.43;;;;;;;;;;5013482;28;93532;-67
2022/09/07 07:52:01;;;;;;;14.65;9.38;;;;;;;;;;5013444;28;93399;-66
2022/09/07 07:54:47;;;;;;;12.38;9.10;;;;;;;;;;4999377;28;92475;-67
2022/09/07 07:57:15;;;;;;;12.98;8.85;;;;;;;;;;5013123;28;93192;-67
2022/09/07 07:59:41;;;;;;;13.73;8.68;;;;;;;;;;5013613;28;92670;-67
2022/09/07 08:02:12;;;;;;;15.65;9.93;;;;;;;;;;4999740;28;92633;-66
2022/09/07 08:04:38;;;;;;;13.93;9.30;;;;;;;;;;5012687;28;93442;-66
2022/09/07 08:07:05;;;;;;;10.40;9.27;;;;;;;;;;4994603;28;94889;-66
2022/09/07 08:09:40;;;;;;;13.25;9.93;;;;;;;;;;5012932;28;95667;-66
2022/09/07 08:12:06;;;;;;;12.50;9.75;;;;;;;;;;5013020;28;93558;-66
2022/09/07 08:14:35;;;;;;;19.45;12.05;;;;;;;;;;4996854;28;92392;-67
2022/09/07 08:17:01;;;;;;;14.23;11.95;;;;;;;;;;5012706;28;93704;-67
2022/09/07 08:19:28;;;;;;;15.25;12.45;;;;;;;;;;5012398;28;93479;-67
2022/09/07 08:21:54;;;;;;;17.13;12.98;;;;;;;;;;4995334;28;92668;-66
2022/09/07 08:24:20;;;;;;;17.17;13.65;;;;;;;;;;4998193;28;93336;-67
2022/09/07 08:26:46;;;;;;;19.35;14.05;;;;;;;;;;4994600;28;92467;-67
2022/09/07 08:29:12;;;;;;;16.02;13.52;;;;;;;;;;4994673;28;93181;-66
2022/09/07 08:31:39;;;;;;;20.00;14.40;;;;;;;;;;4992842;28;95726;-67
2022/09/07 08:34:06;;;;;;;19.92;14.95;;;;;;;;;;4994840;28;92568;-67
2022/09/07 08:36:32;;;;;;;17.77;13.50;;;;;;;;;;4993092;28;93084;-66
2022/09/07 08:38:59;;;;;;;19.90;14.00;;;;;;;;;;4994056;28;93464;-66
2022/09/07 08:41:25;;;;;;;20.58;13.93;;;;;;;;;;4993483;28;92481;-67
2022/09/07 08:43:55;;;;;;;20.42;13.75;;;;;;;;;;4994315;28;93099;-67
2022/09/07 08:46:32;;;;;;;21.65;14.57;;;;;;;;;;5013149;28;93384;-67
2022/09/07 08:49:00;;;;;;;19.73;13.30;;;;;;;;;;4994786;28;93334;-66
2022/09/07 08:51:38;;;;;;;17.27;14.05;;;;;;;;;;4994433;28;93422;-66
2022/09/07 08:54:04;;;;;;;21.90;14.40;;;;;;;;;;4992953;28;92477;-67
2022/09/07 08:56:36;;;;;;;21.00;14.52;;;;;;;;;;4991520;28;94835;-67
2022/09/07 08:59:12;;;;;;;20.17;14.82;;;;;;;;;;4994139;28;93429;-66
2022/09/07 09:01:40;;;;;;;15.98;13.85;;;;;;;;;;5009537;28;92392;-67
2022/09/07 09:04:17;;;;;;;22.67;13.40;;;;;;;;;;4994104;28;93296;-67
2022/09/07 09:06:53;;;;;;;17.42;14.25;;;;;;;;;;4993669;28;93405;-67
2022/09/07 09:09:38;;;;;;;18.48;12.73;;;;;;;;;;4997063;28;92441;-67
2022/09/07 09:12:20;;;;;;;20.48;13.43;;;;;;;;;;4992615;28;93718;-66
2022/09/07 09:15:01;;;;;;;17.10;13.35;;;;;;;;;;4994423;28;91790;-67
2022/09/07 09:17:38;;;;;;;20.23;13.13;;;;;;;;;;4974215;28;92469;-67
2022/09/07 09:20:11;;;;;;;17.60;12.60;;;;;;;;;;4974022;28;93468;-67
2022/09/07 09:22:37;;;;;;;15.95;12.18;;;;;;;;;;4972693;28;94813;-67
2022/09/07 09:25:14;;;;;;;14.63;12.05;;;;;;;;;;4973673;28;95587;-66
2022/09/07 09:27:41;;;;;;;17.27;12.68;;;;;;;;;;4974103;28;93467;-67
2022/09/07 09:30:11;;;;;;;18.00;11.38;;;;;;;;;;4977155;28;92461;-67
2022/09/07 09:32:38;;;;;;;;;;;;;;;;;;4972884;28;93337;-67
2022/09/07 09:35:25;;;;;;;12.40;9.88;;;;;;;;;;4975110;28;120619;-67
2022/09/07 09:37:51;;;;;;;14.45;11.55;;;;;;;;;;4974958;28;93300;-67
2022/09/07 09:40:25;;;;;;;14.88;10.30;;;;;;;;;;4974325;28;92622;-67
2022/09/07 09:43:05;;;;;;;11.82;9.75;;;;;;;;;;4973991;28;92404;-67
2022/09/07 09:45:35;;;;;;;15.77;9.77;;;;;;;;;;4979775;28;93264;-66
2022/09/07 09:48:28;;;;;;;14.35;9.43;;;;;;;;;;4991282;28;95490;-67
2022/09/07 09:50:55;;;;;;;13.70;8.98;;;;;;;;;;4993057;28;92422;-67
2022/09/07 09:53:51;;;;;;;10.70;9.55;;;;;;;;;;4996645;28;92544;-67
2022/09/07 09:56:17;;;;;;;11.23;8.75;;;;;;;;;;4994304;28;92933;-67
2022/09/07 09:58:46;;;;;;;11.93;8.40;;;;;;;;;;4994055;28;93481;-67
2022/09/07 10:01:32;;;;;;;10.25;8.30;;;;;;;;;;4993777;28;93113;-67
2022/09/07 10:04:21;;;;;;;13.00;7.78;;;;;;;;;;4994128;28;92462;-67
2022/09/07 10:06:53;;;;;;;10.25;7.43;;;;;;;;;;4996924;28;93120;-67
2022/09/07 10:09:33;;;;;;;8.77;7.85;;;;;;;;;;4997658;28;93835;-67
2022/09/07 10:12:04;;;;;;;11.80;7.35;;;;;;;;;;4997592;28;92470;-67
2022/09/07 10:14:40;;;;;;;8.18;7.03;;;;;;;;;;4995928;28;95004;-67
2022/09/07 10:17:11;;;;;;;14.15;7.53;;;;;;;;;;5000804;28;93369;-67
2022/09/07 10:19:39;;;;;;;12.20;6.85;;;;;;;;;;4997748;28;94639;-67
2022/09/07 10:22:19;;;;;;;11.98;7.30;;;;;;;;;;4997549;28;93528;-67
2022/09/07 10:24:45;;;;;;;7.63;6.50;;;;;;;;;;4997467;28;92351;-67
2022/09/07 10:27:18;;;;;;;9.80;6.97;;;;;;;;;;4997210;28;93124;-67
2022/09/07 10:29:45;;;;;;;9.52;6.30;;;;;;;;;;4997332;28;93735;-67
2022/09/07 10:32:29;;;;;;;9.43;6.03;;;;;;;;;;4997834;28;91703;-67
2022/09/07 10:34:56;;;;;;;7.78;4.53;;;;;;;;;;4997260;28;92432;-67
2022/09/07 10:37:41;;;;;;;6.55;4.03;;;;;;;;;;4996750;28;93381;-67
2022/09/07 10:40:20;;;;;;;10.80;4.75;;;;;;;;;;4998609;28;94812;-67
2022/09/07 10:42:51;;;;;;;7.80;4.93;;;;;;;;;;4996923;28;93501;-68
2022/09/07 10:45:43;;;;;;;3.70;3.20;;;;;;;;;;4997172;28;92449;-68
2022/09/07 10:48:10;;;;;;;5.93;4.47;;;;;;;;;;4997398;28;93528;-67
2022/09/07 10:50:47;;;;;;;4.25;3.40;;;;;;;;;;4997233;28;92461;-68
2022/09/07 10:53:22;;;;;;;6.65;3.30;;;;;;;;;;4996970;28;92406;-67
2022/09/07 10:56:22;;;;;;;5.90;2.92;;;;;;;;;;4996511;28;93433;-68
2022/09/07 10:59:00;;;;;;;8.13;3.35;;;;;;;;;;4997229;28;92676;-68
2022/09/07 11:01:34;;;;;;;9.30;3.45;;;;;;;;;;4996784;28;92434;-68
2022/09/07 11:04:09;;;;;;;7.25;2.42;;;;;;;;;;4999688;28;93384;-68
2022/09/07 11:06:40;;;;;;;8.88;3.17;;;;;;;;;;4993790;28;95265;-68
2022/09/07 11:09:21;;;;;;;4.70;2.03;;;;;;;;;;4996697;28;95561;-69
2022/09/07 11:12:05;;;;;;;4.60;2.58;;;;;;;;;;4996562;28;93450;-68
2022/09/07 11:14:46;;;;;;;6.65;2.35;;;;;;;;;;4996749;28;92447;-68
2022/09/07 11:17:16;;;;;;;6.80;2.78;;;;;;;;;;4994737;28;93075;-68
2022/09/07 11:19:42;;;;;;;7.97;2.45;;;;;;;;;;4996363;28;93410;-68
2022/09/07 11:22:31;;;;;;;7.10;2.70;;;;;;;;;;4996661;28;92412;-68
2022/09/07 11:25:16;;;;;;;8.82;2.58;;;;;;;;;;4999820;28;93596;-68
2022/09/07 11:28:00;;;;;;;7.43;2.70;;;;;;;;;;4995621;28;92471;-68
2022/09/07 11:30:32;;;;;;;8.90;2.70;;;;;;;;;;4996755;28;94239;-68
2022/09/07 11:33:01;;;;;;;5.03;2.17;;;;;;;;;;4993617;28;96295;-68
2022/09/07 11:35:27;;;;;;;;;;;;;;;;;;4997112;28;92420;-68
2022/09/07 11:37:58;;;;;;;8.20;2.95;;;;;;;;;;4996750;28;124014;-68
2022/09/07 11:40:33;;;;;;;8.80;2.90;;;;;;;;;;5011228;28;93487;-68
2022/09/07 11:43:07;;;;;;;7.30;2.40;;;;;;;;;;4996087;28;92460;-68
2022/09/07 11:45:42;;;;;;;9.98;2.25;;;;;;;;;;4996515;28;93162;-68
2022/09/07 11:48:11;;;;;;;8.07;2.75;;;;;;;;;;4998837;28;93724;-67
2022/09/07 11:50:41;;;;;;;9.48;2.72;;;;;;;;;;4996676;28;93087;-68
2022/09/07 11:53:18;;;;;;;9.00;2.80;;;;;;;;;;4995705;28;93766;-68
2022/09/07 11:55:48;;;;;;;8.05;3.03;;;;;;;;;;4995984;28;92440;-68
2022/09/07 11:58:14;;;;;;;;;;;;;;;;;;4994900;28;95053;-68
2022/09/07 12:00:52;;;;;;;10.85;2.35;;;;;;;;;;4995294;28;124080;-68
2022/09/07 12:03:20;;;;;;;10.02;2.50;;;;;;;;;;4996033;28;92388;-68
2022/09/07 12:05:56;;;;;;;9.38;2.28;;;;;;;;;;4994367;28;93520;-68
2022/09/07 12:08:35;;;;;;;10.82;2.97;;;;;;;;;;4995696;28;93869;-68
2022/09/07 12:11:04;;;;;;;11.35;2.78;;;;;;;;;;4998939;28;92351;-68
2022/09/07 12:13:51;;;;;;;7.18;2.03;;;;;;;;;;4994651;28;94778;-68
2022/09/07 12:16:20;;;;;;;6.97;2.45;;;;;;;;;;4996241;28;91945;-69
2022/09/07 12:18:56;;;;;;;6.18;2.33;;;;;;;;;;5011189;28;92426;-68
2022/09/07 12:21:41;;;;;;;6.38;2.40;;;;;;;;;;4995454;28;93413;-68
2022/09/07 12:24:26;;;;;;;10.98;2.80;;;;;;;;;;4994205;28;94821;-68
2022/09/07 12:26:53;;;;;;;9.23;2.40;;;;;;;;;;4995187;28;95546;-68
2022/09/07 12:29:23;;;;;;;11.65;2.75;;;;;;;;;;4995354;28;93378;-68
2022/09/07 12:31:51;;;;;;;15.32;3.30;;;;;;;;;;4995226;28;93223;-67
2022/09/07 12:34:52;;;;;;;10.00;2.97;;;;;;;;;;4998578;28;93171;-68
2022/09/07 12:37:24;;;;;;;10.90;2.70;;;;;;;;;;4995322;28;92521;-68
2022/09/07 12:40:10;;;;;;;6.95;2.50;;;;;;;;;;4995374;28;93430;-68
2022/09/07 12:42:37;;;;;;;12.32;2.72;;;;;;;;;;4993659;28;92908;-68
2022/09/07 12:45:29;;;;;;;10.85;2.63;;;;;;;;;;4995533;28;92397;-68
2022/09/07 12:47:56;;;;;;;13.57;2.67;;;;;;;;;;4993843;28;93547;-68
2022/09/07 12:50:28;;;;;;;7.13;2.33;;;;;;;;;;4993391;28;95851;-68
2022/09/07 12:53:16;;;;;;;12.25;2.80;;;;;;;;;;4994203;28;93095;-68
2022/09/07 12:56:01;;;;;;;6.10;2.13;;;;;;;;;;4994810;28;93154;-68
2022/09/07 12:58:43;;;;;;;10.48;2.55;;;;;;;;;;4998047;28;93565;-68
2022/09/07 13:01:29;;;;;;;8.23;2.03;;;;;;;;;;4994009;28;92458;-68
2022/09/07 13:04:08;;;;;;;11.02;2.28;;;;;;;;;;4994537;28;93486;-68
2022/09/07 13:06:46;;;;;;;8.27;1.53;;;;;;;;;;4994695;28;93070;-68
2022/09/07 13:09:38;;;;;;;4.90;1.55;;;;;;;;;;4995320;28;93247;-68
2022/09/07 13:12:22;;;;;;;14.40;2.05;;;;;;;;;;4994581;28;93456;-68
2022/09/07 13:15:27;;;;;;;6.38;1.60;;;;;;;;;;4995042;28;92398;-68
2022/09/07 13:17:55;;;;;;;9.88;2.00;;;;;;;;;;4992786;28;94752;-68
2022/09/07 13:20:28;;;;;;;9.32;2.28;;;;;;;;;;4994623;28;93695;-68
2022/09/07 13:22:56;;;;;;;5.65;1.70;;;;;;;;;;4997938;28;92481;-68
2022/09/07 13:25:25;;;;;;;7.68;1.83;;;;;;;;;;4994479;28;93422;-68
2022/09/07 13:27:59;;;;;;;5.78;2.10;;;;;;;;;;4994643;28;92465;-68
2022/09/07 13:30:43;;;;;;;9.80;2.00;;;;;;;;;;4994726;28;93157;-68
2022/09/07 13:33:33;;;;;;;11.20;2.00;;;;;;;;;;4993326;28;93944;-68
2022/09/07 13:36:00;;;;;;;9.75;1.90;;;;;;;;;;4994362;28;92017;-68
2022/09/07 13:38:28;;;;;;;4.30;1.33;;;;;;;;;;4994400;28;92428;-68
2022/09/07 13:40:58;;;;;;;6.28;1.60;;;;;;;;;;4996246;28;93470;-68
2022/09/07 13:43:25;;;;;;;5.57;1.48;;;;;;;;;;4998201;28;94855;-68
2022/09/07 13:45:54;;;;;;;8.45;1.58;;;;;;;;;;4998243;28;93405;-68
2022/09/07 13:48:23;;;;;;;9.00;1.63;;;;;;;;;;4998051;28;92486;-68
2022/09/07 13:51:04;;;;;;;6.15;1.60;;;;;;;;;;4996621;28;93143;-68
2022/09/07 13:53:49;;;;;;;5.47;1.73;;;;;;;;;;4997584;28;94649;-68
2022/09/07 13:56:34;;;;;;;4.35;1.25;;;;;;;;;;4997958;28;92477;-68
2022/09/07 13:59:09;;;;;;;7.28;1.85;;;;;;;;;;4996755;28;93165;-68
2022/09/07 14:01:41;;;;;;;5.75;1.08;;;;;;;;;;4998311;28;93667;-68
2022/09/07 14:04:16;;;;;;;7.22;1.60;;;;;;;;;;4997657;28;92423;-68
2022/09/07 14:06:42;;;;;;;4.72;1.60;;;;;;;;;;4999619;28;93691;-68
2022/09/07 14:09:13;;;;;;;3.75;1.13;;;;;;;;;;4995814;28;94809;-68
2022/09/07 14:11:39;;;;;;;7.07;1.80;;;;;;;;;;4997690;28;95487;-68
2022/09/07 14:14:12;;;;;;;4.20;1.85;;;;;;;;;;4996057;28;93413;-68
2022/09/07 14:16:39;;;;;;;8.98;1.65;;;;;;;;;;4997798;28;92461;-68
2022/09/07 14:19:25;;;;;;;6.40;1.55;;;;;;;;;;4997652;28;94227;-68
2022/09/07 14:21:53;;;;;;;4.57;1.50;;;;;;;;;;4997229;28;93405;-68
2022/09/07 14:24:24;;;;;;;5.72;1.42;;;;;;;;;;4997375;28;92448;-68
2022/09/07 14:26:51;;;;;;;7.53;1.70;;;;;;;;;;4997830;28;93243;-68
2022/09/07 14:29:22;;;;;;;6.47;1.50;;;;;;;;;;4999422;28;95854;-68
2022/09/07 14:31:49;;;;;;;10.27;1.70;;;;;;;;;;4997279;28;93434;-68
2022/09/07 14:34:16;;;;;;;3.70;1.13;;;;;;;;;;4995497;28;95795;-68
2022/09/07 14:36:45;;;;;;;4.15;1.02;;;;;;;;;;4997277;28;92500;-68
2022/09/07 14:39:15;;;;;;;3.27;1.20;;;;;;;;;;4997153;28;93418;-68
2022/09/07 14:41:42;;;;;;;8.13;1.80;;;;;;;;;;4997603;28;93474;-68
2022/09/07 14:44:27;;;;;;;6.07;1.75;;;;;;;;;;4997172;28;92354;-68
2022/09/07 14:46:53;;;;;;;4.40;1.27;;;;;;;;;;4996158;28;93099;-68
2022/09/07 14:49:23;;;;;;;2.70;1.25;;;;;;;;;;5011805;28;93673;-68
2022/09/07 14:51:50;;;;;;;5.03;1.38;;;;;;;;;;4997976;28;91671;-68
2022/09/07 14:54:30;;;;;;;10.13;1.42;;;;;;;;;;4996246;28;93421;-68
2022/09/07 14:57:09;;;;;;;5.85;1.67;;;;;;;;;;4997122;28;92770;-69
2022/09/07 14:59:40;;;;;;;4.90;1.50;;;;;;;;;;4994317;28;94818;-69
2022/09/07 15:02:22;;;;;;;8.32;1.60;;;;;;;;;;4996674;28;92412;-68
2022/09/07 15:05:09;;;;;;;7.22;1.63;;;;;;;;;;4995552;28;92448;-69
2022/09/07 15:07:38;;;;;;;6.90;1.60;;;;;;;;;;4996525;28;94214;-68
2022/09/07 15:10:05;;;;;;;;;;;;;;;;;;4996800;28;93649;-68